sensor_id;sensor_type;location;lat;lon;timestamp;temperature;humidity
18163;DHT22;9206;50.994;4.538;2023-07-13T00:00:22;16.10;99.90
18163;DHT22;9206;50.994;4.538;2023-07-13T00:03:27;16.10;99.90
18163;DHT22;9206;50.994;4.538;2023-07-13T00:10:01;16.00;99.90
18163;DHT22;9206;50.994;4.538;2023-07-13T00:13:44;16.10;99.90
18163;DHT22;9206;50.994;4.538;2023-07-13T00:17:19;16.10;99.90
18163;DHT22;9206;50.994;4.538;2023-07-13T00:20:42;16.00;99.90
18163;DHT22;9206;50.994;4.538;2023-07-13T00:24:04;16.00;99.90
18163;DHT22;9206;50.994;4.538;2023-07-13T00:27:00;16.00;99.90
18163;DHT22;9206;50.994;4.538;2023-07-13T00:30:00;15.90;99.90
18163;DHT22;9206;50.994;4.538;2023-07-13T00:32:52;15.90;99.90
18163;DHT22;9206;50.994;4.538;2023-07-13T00:35:49;15.80;99.90
18163;DHT22;9206;50.994;4.538;2023-07-13T00:39:05;15.80;99.90
18163;DHT22;9206;50.994;4.538;2023-07-13T00:46:25;15.90;99.90
18163;DHT22;9206;50.994;4.538;2023-07-13T00:49:38;15.70;99.90
18163;DHT22;9206;50.994;4.538;2023-07-13T00:52:28;15.70;99.90
18163;DHT22;9206;50.994;4.538;2023-07-13T00:55:44;15.70;99.90
18163;DHT22;9206;50.994;4.538;2023-07-13T00:58:53;15.60;99.90
18163;DHT22;9206;50.994;4.538;2023-07-13T01:02:21;15.60;99.90
18163;DHT22;9206;50.994;4.538;2023-07-13T01:05:33;15.60;99.90
18163;DHT22;9206;50.994;4.538;2023-07-13T01:09:09;15.60;99.90
18163;DHT22;9206;50.994;4.538;2023-07-13T01:12:41;15.50;99.90
18163;DHT22;9206;50.994;4.538;2023-07-13T01:15:40;15.50;99.90
18163;DHT22;9206;50.994;4.538;2023-07-13T01:18:53;15.50;99.90
18163;DHT22;9206;50.994;4.538;2023-07-13T01:22:33;15.50;99.90
18163;DHT22;9206;50.994;4.538;2023-07-13T01:25:37;15.50;99.90
18163;DHT22;9206;50.994;4.538;2023-07-13T01:28:46;15.40;99.90
18163;DHT22;9206;50.994;4.538;2023-07-13T01:35:24;15.30;99.90
18163;DHT22;9206;50.994;4.538;2023-07-13T01:38:20;15.20;99.90
18163;DHT22;9206;50.994;4.538;2023-07-13T01:41:11;15.20;99.90
18163;DHT22;9206;50.994;4.538;2023-07-13T01:44:16;15.20;99.90
18163;DHT22;9206;50.994;4.538;2023-07-13T01:47:51;15.20;99.90
18163;DHT22;9206;50.994;4.538;2023-07-13T01:51:15;15.10;99.90
18163;DHT22;9206;50.994;4.538;2023-07-13T01:57:36;15.10;99.90
18163;DHT22;9206;50.994;4.538;2023-07-13T02:00:33;15.10;99.90
18163;DHT22;9206;50.994;4.538;2023-07-13T02:03:54;15.10;99.90
18163;DHT22;9206;50.994;4.538;2023-07-13T02:10:45;15.30;99.90
18163;DHT22;9206;50.994;4.538;2023-07-13T02:13:41;15.30;99.90
18163;DHT22;9206;50.994;4.538;2023-07-13T02:17:02;15.40;99.90
18163;DHT22;9206;50.994;4.538;2023-07-13T02:20:09;15.50;99.90
18163;DHT22;9206;50.994;4.538;2023-07-13T02:37:35;15.50;99.90
18163;DHT22;9206;50.994;4.538;2023-07-13T02:47:31;15.60;99.90
18163;DHT22;9206;50.994;4.538;2023-07-13T02:51:05;15.50;99.90
18163;DHT22;9206;50.994;4.538;2023-07-13T02:54:20;15.60;99.90
18163;DHT22;9206;50.994;4.538;2023-07-13T02:57:10;15.60;99.90
18163;DHT22;9206;50.994;4.538;2023-07-13T03:00:09;15.60;99.90
18163;DHT22;9206;50.994;4.538;2023-07-13T03:03:09;15.60;99.90
18163;DHT22;9206;50.994;4.538;2023-07-13T03:09:24;15.60;99.90
18163;DHT22;9206;50.994;4.538;2023-07-13T03:13:10;15.60;99.90
18163;DHT22;9206;50.994;4.538;2023-07-13T03:16:13;15.70;99.90
18163;DHT22;9206;50.994;4.538;2023-07-13T03:19:23;15.70;99.90
18163;DHT22;9206;50.994;4.538;2023-07-13T03:22:15;15.60;99.90
18163;DHT22;9206;50.994;4.538;2023-07-13T03:25:33;15.60;99.90
18163;DHT22;9206;50.994;4.538;2023-07-13T03:28:34;15.70;99.90
18163;DHT22;9206;50.994;4.538;2023-07-13T03:31:42;15.70;99.90
18163;DHT22;9206;50.994;4.538;2023-07-13T03:34:47;15.60;99.90
18163;DHT22;9206;50.994;4.538;2023-07-13T03:38:09;15.70;99.90
18163;DHT22;9206;50.994;4.538;2023-07-13T03:44:45;15.70;99.90
18163;DHT22;9206;50.994;4.538;2023-07-13T03:47:40;15.70;99.90
18163;DHT22;9206;50.994;4.538;2023-07-13T03:50:41;15.70;99.90
18163;DHT22;9206;50.994;4.538;2023-07-13T03:54:20;15.70;99.90
18163;DHT22;9206;50.994;4.538;2023-07-13T04:03:55;15.70;99.90
18163;DHT22;9206;50.994;4.538;2023-07-13T04:06:56;15.70;99.90
18163;DHT22;9206;50.994;4.538;2023-07-13T04:10:08;15.70;99.90
18163;DHT22;9206;50.994;4.538;2023-07-13T04:13:04;15.70;99.90
18163;DHT22;9206;50.994;4.538;2023-07-13T04:16:26;15.70;99.90
18163;DHT22;9206;50.994;4.538;2023-07-13T04:19:50;15.70;99.90
18163;DHT22;9206;50.994;4.538;2023-07-13T04:23:08;15.70;99.90
18163;DHT22;9206;50.994;4.538;2023-07-13T04:29:56;15.70;99.90
18163;DHT22;9206;50.994;4.538;2023-07-13T04:33:32;15.70;99.90
18163;DHT22;9206;50.994;4.538;2023-07-13T04:36:42;15.80;99.90
18163;DHT22;9206;50.994;4.538;2023-07-13T04:40:00;15.80;99.90
18163;DHT22;9206;50.994;4.538;2023-07-13T04:43:02;15.90;99.90
18163;DHT22;9206;50.994;4.538;2023-07-13T04:45:57;15.90;99.90
18163;DHT22;9206;50.994;4.538;2023-07-13T04:52:22;16.00;99.90
18163;DHT22;9206;50.994;4.538;2023-07-13T04:55:10;16.10;99.90
18163;DHT22;9206;50.994;4.538;2023-07-13T04:58:29;16.10;99.90
18163;DHT22;9206;50.994;4.538;2023-07-13T05:04:13;16.10;99.90
18163;DHT22;9206;50.994;4.538;2023-07-13T05:07:02;16.20;99.90
18163;DHT22;9206;50.994;4.538;2023-07-13T05:12:54;16.20;99.90
18163;DHT22;9206;50.994;4.538;2023-07-13T05:15:56;16.30;99.90
18163;DHT22;9206;50.994;4.538;2023-07-13T05:18:49;16.30;99.90
18163;DHT22;9206;50.994;4.538;2023-07-13T05:21:36;16.30;99.90
18163;DHT22;9206;50.994;4.538;2023-07-13T05:24:36;16.30;99.90
18163;DHT22;9206;50.994;4.538;2023-07-13T05:27:26;16.40;99.90
18163;DHT22;9206;50.994;4.538;2023-07-13T05:30:16;16.40;99.90
18163;DHT22;9206;50.994;4.538;2023-07-13T05:33:08;16.40;99.90
18163;DHT22;9206;50.994;4.538;2023-07-13T05:35:56;16.40;99.90
18163;DHT22;9206;50.994;4.538;2023-07-13T05:38:47;16.40;99.90
18163;DHT22;9206;50.994;4.538;2023-07-13T05:41:40;16.50;99.90
18163;DHT22;9206;50.994;4.538;2023-07-13T05:44:29;16.60;99.90
18163;DHT22;9206;50.994;4.538;2023-07-13T05:47:56;16.70;99.90
18163;DHT22;9206;50.994;4.538;2023-07-13T05:51:06;16.70;99.90
18163;DHT22;9206;50.994;4.538;2023-07-13T05:53:55;16.80;99.90
18163;DHT22;9206;50.994;4.538;2023-07-13T05:57:21;16.90;99.90
18163;DHT22;9206;50.994;4.538;2023-07-13T06:00:40;17.00;99.90
18163;DHT22;9206;50.994;4.538;2023-07-13T06:07:44;17.10;99.90
18163;DHT22;9206;50.994;4.538;2023-07-13T06:10:32;17.10;99.90
18163;DHT22;9206;50.994;4.538;2023-07-13T06:13:22;17.20;99.90
18163;DHT22;9206;50.994;4.538;2023-07-13T06:23:44;17.40;99.90
18163;DHT22;9206;50.994;4.538;2023-07-13T06:26:35;17.50;99.90
18163;DHT22;9206;50.994;4.538;2023-07-13T06:29:51;17.60;99.90
18163;DHT22;9206;50.994;4.538;2023-07-13T06:32:49;17.70;99.90
18163;DHT22;9206;50.994;4.538;2023-07-13T06:35:44;17.80;99.90
18163;DHT22;9206;50.994;4.538;2023-07-13T06:44:43;18.30;99.90
18163;DHT22;9206;50.994;4.538;2023-07-13T06:47:45;18.40;99.90
18163;DHT22;9206;50.994;4.538;2023-07-13T06:50:57;18.60;99.90
18163;DHT22;9206;50.994;4.538;2023-07-13T07:00:13;18.50;99.90
18163;DHT22;9206;50.994;4.538;2023-07-13T07:03:13;18.50;99.90
18163;DHT22;9206;50.994;4.538;2023-07-13T07:06:29;18.70;99.90
18163;DHT22;9206;50.994;4.538;2023-07-13T07:09:18;19.00;99.90
18163;DHT22;9206;50.994;4.538;2023-07-13T07:12:11;19.40;99.90
18163;DHT22;9206;50.994;4.538;2023-07-13T07:15:00;19.70;99.90
18163;DHT22;9206;50.994;4.538;2023-07-13T07:17:53;19.90;99.90
18163;DHT22;9206;50.994;4.538;2023-07-13T07:20:46;20.10;99.90
18163;DHT22;9206;50.994;4.538;2023-07-13T07:23:36;20.40;99.90
18163;DHT22;9206;50.994;4.538;2023-07-13T07:26:24;20.50;99.90
18163;DHT22;9206;50.994;4.538;2023-07-13T07:29:14;20.70;99.90
18163;DHT22;9206;50.994;4.538;2023-07-13T07:32:11;20.80;99.90
18163;DHT22;9206;50.994;4.538;2023-07-13T07:35:01;20.80;99.90
18163;DHT22;9206;50.994;4.538;2023-07-13T07:37:51;20.70;99.90
18163;DHT22;9206;50.994;4.538;2023-07-13T07:40:42;20.80;99.90
18163;DHT22;9206;50.994;4.538;2023-07-13T07:43:32;21.10;99.90
18163;DHT22;9206;50.994;4.538;2023-07-13T07:46:33;21.40;99.90
18163;DHT22;9206;50.994;4.538;2023-07-13T07:53:25;21.50;99.90
18163;DHT22;9206;50.994;4.538;2023-07-13T07:56:15;22.50;99.90
18163;DHT22;9206;50.994;4.538;2023-07-13T07:59:03;23.30;99.90
18163;DHT22;9206;50.994;4.538;2023-07-13T08:01:51;24.20;99.90
18163;DHT22;9206;50.994;4.538;2023-07-13T08:04:45;24.70;99.90
18163;DHT22;9206;50.994;4.538;2023-07-13T08:07:33;24.10;99.90
18163;DHT22;9206;50.994;4.538;2023-07-13T08:10:24;23.90;99.90
18163;DHT22;9206;50.994;4.538;2023-07-13T08:13:12;23.30;99.90
18163;DHT22;9206;50.994;4.538;2023-07-13T08:16:04;23.70;99.90
18163;DHT22;9206;50.994;4.538;2023-07-13T08:18:54;24.70;99.90
18163;DHT22;9206;50.994;4.538;2023-07-13T08:21:43;25.00;99.90
18163;DHT22;9206;50.994;4.538;2023-07-13T08:24:33;25.80;99.90
18163;DHT22;9206;50.994;4.538;2023-07-13T08:27:30;25.60;99.90
18163;DHT22;9206;50.994;4.538;2023-07-13T08:30:23;25.40;99.90
18163;DHT22;9206;50.994;4.538;2023-07-13T08:33:13;25.50;99.90
18163;DHT22;9206;50.994;4.538;2023-07-13T08:36:03;25.10;99.90
18163;DHT22;9206;50.994;4.538;2023-07-13T08:38:52;25.30;99.90
18163;DHT22;9206;50.994;4.538;2023-07-13T08:41:42;26.30;99.90
18163;DHT22;9206;50.994;4.538;2023-07-13T08:44:43;26.50;99.90
18163;DHT22;9206;50.994;4.538;2023-07-13T08:47:48;26.60;99.90
18163;DHT22;9206;50.994;4.538;2023-07-13T08:51:02;26.90;99.90
18163;DHT22;9206;50.994;4.538;2023-07-13T08:54:09;27.40;99.90
18163;DHT22;9206;50.994;4.538;2023-07-13T08:57:08;26.70;99.90
18163;DHT22;9206;50.994;4.538;2023-07-13T08:59:59;26.10;99.90
18163;DHT22;9206;50.994;4.538;2023-07-13T09:02:51;26.90;99.90
18163;DHT22;9206;50.994;4.538;2023-07-13T09:05:42;27.40;99.90
18163;DHT22;9206;50.994;4.538;2023-07-13T09:08:49;27.30;99.90
18163;DHT22;9206;50.994;4.538;2023-07-13T09:11:46;27.50;99.90
18163;DHT22;9206;50.994;4.538;2023-07-13T09:14:42;27.70;99.90
18163;DHT22;9206;50.994;4.538;2023-07-13T09:17:38;28.00;99.90
18163;DHT22;9206;50.994;4.538;2023-07-13T09:20:32;27.70;99.90
18163;DHT22;9206;50.994;4.538;2023-07-13T09:23:23;27.90;99.90
18163;DHT22;9206;50.994;4.538;2023-07-13T09:26:20;28.60;99.90
18163;DHT22;9206;50.994;4.538;2023-07-13T09:29:24;28.10;99.90
18163;DHT22;9206;50.994;4.538;2023-07-13T09:32:18;26.90;99.90
18163;DHT22;9206;50.994;4.538;2023-07-13T09:35:19;25.70;99.90
18163;DHT22;9206;50.994;4.538;2023-07-13T09:38:13;25.50;99.90
18163;DHT22;9206;50.994;4.538;2023-07-13T09:41:14;25.10;99.90
18163;DHT22;9206;50.994;4.538;2023-07-13T09:44:13;24.30;99.90
18163;DHT22;9206;50.994;4.538;2023-07-13T09:47:03;25.40;99.90
18163;DHT22;9206;50.994;4.538;2023-07-13T09:49:54;26.80;99.90
18163;DHT22;9206;50.994;4.538;2023-07-13T09:52:56;27.60;99.90
18163;DHT22;9206;50.994;4.538;2023-07-13T09:55:57;28.40;99.90
18163;DHT22;9206;50.994;4.538;2023-07-13T09:59:02;28.50;99.90
18163;DHT22;9206;50.994;4.538;2023-07-13T10:01:51;28.80;99.90
18163;DHT22;9206;50.994;4.538;2023-07-13T10:05:11;29.60;99.90
18163;DHT22;9206;50.994;4.538;2023-07-13T10:08:31;29.80;99.90
18163;DHT22;9206;50.994;4.538;2023-07-13T10:11:43;30.50;99.90
18163;DHT22;9206;50.994;4.538;2023-07-13T10:14:37;30.10;99.90
18163;DHT22;9206;50.994;4.538;2023-07-13T10:17:32;29.50;99.90
18163;DHT22;9206;50.994;4.538;2023-07-13T10:20:21;28.70;99.90
18163;DHT22;9206;50.994;4.538;2023-07-13T10:29:24;27.10;99.90
18163;DHT22;9206;50.994;4.538;2023-07-13T10:32:16;26.30;99.90
18163;DHT22;9206;50.994;4.538;2023-07-13T10:35:11;25.30;99.90
18163;DHT22;9206;50.994;4.538;2023-07-13T10:38:05;24.70;99.90
18163;DHT22;9206;50.994;4.538;2023-07-13T10:41:01;24.40;99.90
18163;DHT22;9206;50.994;4.538;2023-07-13T10:44:15;25.30;99.90
18163;DHT22;9206;50.994;4.538;2023-07-13T10:47:29;26.80;99.90
18163;DHT22;9206;50.994;4.538;2023-07-13T10:50:28;28.00;99.90
18163;DHT22;9206;50.994;4.538;2023-07-13T11:04:19;28.00;99.90
18163;DHT22;9206;50.994;4.538;2023-07-13T11:07:19;27.20;99.90
18163;DHT22;9206;50.994;4.538;2023-07-13T11:13:56;26.50;99.90
18163;DHT22;9206;50.994;4.538;2023-07-13T11:16:51;27.30;99.90
18163;DHT22;9206;50.994;4.538;2023-07-13T11:20:22;28.30;99.90
18163;DHT22;9206;50.994;4.538;2023-07-13T11:23:32;28.10;99.90
18163;DHT22;9206;50.994;4.538;2023-07-13T11:26:52;28.10;99.90
18163;DHT22;9206;50.994;4.538;2023-07-13T11:30:17;28.40;99.90
18163;DHT22;9206;50.994;4.538;2023-07-13T11:33:56;28.10;99.90
18163;DHT22;9206;50.994;4.538;2023-07-13T11:36:51;27.60;99.90
18163;DHT22;9206;50.994;4.538;2023-07-13T11:39:42;28.10;99.90
18163;DHT22;9206;50.994;4.538;2023-07-13T11:42:45;28.40;99.90
18163;DHT22;9206;50.994;4.538;2023-07-13T11:45:36;28.60;99.90
18163;DHT22;9206;50.994;4.538;2023-07-13T11:49:00;28.10;99.90
18163;DHT22;9206;50.994;4.538;2023-07-13T11:51:48;27.70;99.90
18163;DHT22;9206;50.994;4.538;2023-07-13T12:00:47;26.70;99.90
18163;DHT22;9206;50.994;4.538;2023-07-13T12:03:41;26.10;99.90
18163;DHT22;9206;50.994;4.538;2023-07-13T12:06:30;25.30;99.90
18163;DHT22;9206;50.994;4.538;2023-07-13T12:09:27;24.40;99.90
18163;DHT22;9206;50.994;4.538;2023-07-13T12:12:19;23.50;99.90
18163;DHT22;9206;50.994;4.538;2023-07-13T12:15:13;22.40;99.90
18163;DHT22;9206;50.994;4.538;2023-07-13T12:18:32;22.00;99.90
18163;DHT22;9206;50.994;4.538;2023-07-13T12:22:11;21.60;99.90
18163;DHT22;9206;50.994;4.538;2023-07-13T12:25:02;21.10;99.90
18163;DHT22;9206;50.994;4.538;2023-07-13T12:27:52;20.60;99.90
18163;DHT22;9206;50.994;4.538;2023-07-13T12:30:41;20.20;99.90
18163;DHT22;9206;50.994;4.538;2023-07-13T12:33:57;19.70;99.90
18163;DHT22;9206;50.994;4.538;2023-07-13T12:36:53;19.50;99.90
18163;DHT22;9206;50.994;4.538;2023-07-13T12:43:36;19.80;99.90
18163;DHT22;9206;50.994;4.538;2023-07-13T12:46:31;20.00;99.90
18163;DHT22;9206;50.994;4.538;2023-07-13T12:49:42;20.30;99.90
18163;DHT22;9206;50.994;4.538;2023-07-13T12:52:59;20.70;99.90
18163;DHT22;9206;50.994;4.538;2023-07-13T12:56:02;21.00;99.90
18163;DHT22;9206;50.994;4.538;2023-07-13T12:59:22;21.20;99.90
18163;DHT22;9206;50.994;4.538;2023-07-13T13:02:24;21.50;99.90
18163;DHT22;9206;50.994;4.538;2023-07-13T13:05:19;21.70;99.90
18163;DHT22;9206;50.994;4.538;2023-07-13T13:08:17;21.80;99.90
18163;DHT22;9206;50.994;4.538;2023-07-13T13:11:37;21.80;99.90
18163;DHT22;9206;50.994;4.538;2023-07-13T13:14:33;21.90;99.90
18163;DHT22;9206;50.994;4.538;2023-07-13T13:17:30;21.70;99.90
18163;DHT22;9206;50.994;4.538;2023-07-13T13:20:34;21.70;99.90
18163;DHT22;9206;50.994;4.538;2023-07-13T13:23:24;21.80;99.90
18163;DHT22;9206;50.994;4.538;2023-07-13T13:26:27;21.90;99.90
18163;DHT22;9206;50.994;4.538;2023-07-13T13:29:18;22.00;99.90
18163;DHT22;9206;50.994;4.538;2023-07-13T13:32:35;22.10;99.90
18163;DHT22;9206;50.994;4.538;2023-07-13T13:38:58;22.00;99.90
18163;DHT22;9206;50.994;4.538;2023-07-13T13:41:48;22.00;99.90
18163;DHT22;9206;50.994;4.538;2023-07-13T13:45:13;22.20;99.90
18163;DHT22;9206;50.994;4.538;2023-07-13T13:48:30;22.00;99.90
18163;DHT22;9206;50.994;4.538;2023-07-13T13:51:42;22.00;99.90
18163;DHT22;9206;50.994;4.538;2023-07-13T13:54:37;22.00;99.90
18163;DHT22;9206;50.994;4.538;2023-07-13T13:57:55;22.10;99.90
18163;DHT22;9206;50.994;4.538;2023-07-13T14:07:24;24.10;99.90
18163;DHT22;9206;50.994;4.538;2023-07-13T14:10:32;24.90;99.90
18163;DHT22;9206;50.994;4.538;2023-07-13T14:13:22;25.60;99.90
18163;DHT22;9206;50.994;4.538;2023-07-13T14:16:16;25.80;99.90
18163;DHT22;9206;50.994;4.538;2023-07-13T14:19:05;26.00;99.90
18163;DHT22;9206;50.994;4.538;2023-07-13T14:24:25;26.70;99.90
18163;DHT22;9206;50.994;4.538;2023-07-13T14:27:21;26.70;99.90
18163;DHT22;9206;50.994;4.538;2023-07-13T14:34:05;26.40;99.90
18163;DHT22;9206;50.994;4.538;2023-07-13T14:36:54;25.80;99.90
18163;DHT22;9206;50.994;4.538;2023-07-13T14:42:57;25.10;99.90
18163;DHT22;9206;50.994;4.538;2023-07-13T14:45:47;24.90;99.90
18163;DHT22;9206;50.994;4.538;2023-07-13T14:48:39;24.70;99.90
18163;DHT22;9206;50.994;4.538;2023-07-13T14:51:34;24.60;99.90
18163;DHT22;9206;50.994;4.538;2023-07-13T14:54:47;24.40;99.90
18163;DHT22;9206;50.994;4.538;2023-07-13T14:57:49;24.70;99.90
18163;DHT22;9206;50.994;4.538;2023-07-13T15:00:52;24.80;99.90
18163;DHT22;9206;50.994;4.538;2023-07-13T15:03:48;24.90;99.90
18163;DHT22;9206;50.994;4.538;2023-07-13T15:07:15;24.90;99.90
18163;DHT22;9206;50.994;4.538;2023-07-13T15:13:35;25.20;99.90
18163;DHT22;9206;50.994;4.538;2023-07-13T15:16:25;25.40;99.90
18163;DHT22;9206;50.994;4.538;2023-07-13T15:19:13;25.50;99.90
18163;DHT22;9206;50.994;4.538;2023-07-13T15:22:19;25.50;99.90
18163;DHT22;9206;50.994;4.538;2023-07-13T15:25:41;25.70;99.90
18163;DHT22;9206;50.994;4.538;2023-07-13T15:28:52;25.90;99.90
18163;DHT22;9206;50.994;4.538;2023-07-13T15:31:43;26.00;99.90
18163;DHT22;9206;50.994;4.538;2023-07-13T15:34:37;25.90;99.90
18163;DHT22;9206;50.994;4.538;2023-07-13T15:37:26;26.00;99.90
18163;DHT22;9206;50.994;4.538;2023-07-13T15:40:14;25.80;99.90
18163;DHT22;9206;50.994;4.538;2023-07-13T15:43:11;25.30;99.90
18163;DHT22;9206;50.994;4.538;2023-07-13T15:46:00;25.00;99.90
18163;DHT22;9206;50.994;4.538;2023-07-13T15:48:50;24.80;99.90
18163;DHT22;9206;50.994;4.538;2023-07-13T15:51:40;24.80;99.90
18163;DHT22;9206;50.994;4.538;2023-07-13T15:57:09;25.10;99.90
18163;DHT22;9206;50.994;4.538;2023-07-13T16:00:14;25.10;99.90
18163;DHT22;9206;50.994;4.538;2023-07-13T16:03:05;25.20;99.90
18163;DHT22;9206;50.994;4.538;2023-07-13T16:05:56;25.40;99.90
18163;DHT22;9206;50.994;4.538;2023-07-13T16:08:45;25.50;99.90
18163;DHT22;9206;50.994;4.538;2023-07-13T16:11:38;25.30;99.90
18163;DHT22;9206;50.994;4.538;2023-07-13T16:14:27;25.00;99.90
18163;DHT22;9206;50.994;4.538;2023-07-13T16:17:20;24.80;99.90
18163;DHT22;9206;50.994;4.538;2023-07-13T16:20:12;24.90;99.90
18163;DHT22;9206;50.994;4.538;2023-07-13T16:23:03;24.90;99.90
18163;DHT22;9206;50.994;4.538;2023-07-13T16:25:57;24.90;99.90
18163;DHT22;9206;50.994;4.538;2023-07-13T16:28:48;24.80;99.90
18163;DHT22;9206;50.994;4.538;2023-07-13T16:31:38;24.70;99.90
18163;DHT22;9206;50.994;4.538;2023-07-13T16:34:43;24.60;99.90
18163;DHT22;9206;50.994;4.538;2023-07-13T16:37:35;24.50;99.90
18163;DHT22;9206;50.994;4.538;2023-07-13T16:40:33;24.60;99.90
18163;DHT22;9206;50.994;4.538;2023-07-13T16:44:00;24.90;99.90
18163;DHT22;9206;50.994;4.538;2023-07-13T16:46:57;25.00;99.90
18163;DHT22;9206;50.994;4.538;2023-07-13T16:49:48;25.00;99.90
18163;DHT22;9206;50.994;4.538;2023-07-13T16:52:39;24.90;99.90
18163;DHT22;9206;50.994;4.538;2023-07-13T16:55:27;24.90;99.90
18163;DHT22;9206;50.994;4.538;2023-07-13T16:58:21;24.80;99.90
18163;DHT22;9206;50.994;4.538;2023-07-13T17:01:11;24.80;99.90
18163;DHT22;9206;50.994;4.538;2023-07-13T17:03:58;24.60;99.90
18163;DHT22;9206;50.994;4.538;2023-07-13T17:06:46;24.50;99.90
18163;DHT22;9206;50.994;4.538;2023-07-13T17:09:37;24.40;99.90
18163;DHT22;9206;50.994;4.538;2023-07-13T17:12:35;24.30;99.90
18163;DHT22;9206;50.994;4.538;2023-07-13T17:15:23;24.20;99.90
18163;DHT22;9206;50.994;4.538;2023-07-13T17:18:18;24.20;99.90
18163;DHT22;9206;50.994;4.538;2023-07-13T17:21:13;24.00;99.90
18163;DHT22;9206;50.994;4.538;2023-07-13T17:24:17;23.90;99.90
18163;DHT22;9206;50.994;4.538;2023-07-13T17:27:09;23.90;99.90
18163;DHT22;9206;50.994;4.538;2023-07-13T17:29:56;23.90;99.90
18163;DHT22;9206;50.994;4.538;2023-07-13T17:32:46;24.00;99.90
18163;DHT22;9206;50.994;4.538;2023-07-13T17:35:35;24.20;99.90
18163;DHT22;9206;50.994;4.538;2023-07-13T17:38:31;24.30;99.90
18163;DHT22;9206;50.994;4.538;2023-07-13T17:41:22;24.40;99.90
18163;DHT22;9206;50.994;4.538;2023-07-13T17:44:16;24.50;99.90
18163;DHT22;9206;50.994;4.538;2023-07-13T17:47:29;24.50;99.90
18163;DHT22;9206;50.994;4.538;2023-07-13T17:50:31;24.40;99.90
18163;DHT22;9206;50.994;4.538;2023-07-13T17:53:24;24.30;99.90
18163;DHT22;9206;50.994;4.538;2023-07-13T17:56:12;24.10;99.90
18163;DHT22;9206;50.994;4.538;2023-07-13T17:59:09;24.10;99.90
18163;DHT22;9206;50.994;4.538;2023-07-13T18:01:58;24.00;99.90
18163;DHT22;9206;50.994;4.538;2023-07-13T18:04:47;24.00;99.90
18163;DHT22;9206;50.994;4.538;2023-07-13T18:07:37;24.00;99.90
18163;DHT22;9206;50.994;4.538;2023-07-13T18:10:25;23.80;99.90
18163;DHT22;9206;50.994;4.538;2023-07-13T18:13:12;23.60;99.90
18163;DHT22;9206;50.994;4.538;2023-07-13T18:16:02;23.40;99.90
18163;DHT22;9206;50.994;4.538;2023-07-13T18:18:58;23.20;99.90
18163;DHT22;9206;50.994;4.538;2023-07-13T18:21:52;22.90;99.90
18163;DHT22;9206;50.994;4.538;2023-07-13T18:24:43;22.80;99.90
18163;DHT22;9206;50.994;4.538;2023-07-13T18:27:31;22.60;99.90
18163;DHT22;9206;50.994;4.538;2023-07-13T18:30:24;22.50;99.90
18163;DHT22;9206;50.994;4.538;2023-07-13T18:33:20;22.60;99.90
18163;DHT22;9206;50.994;4.538;2023-07-13T18:36:16;22.50;99.90
18163;DHT22;9206;50.994;4.538;2023-07-13T18:39:05;22.50;99.90
18163;DHT22;9206;50.994;4.538;2023-07-13T18:41:55;22.50;99.90
18163;DHT22;9206;50.994;4.538;2023-07-13T18:44:45;22.50;99.90
18163;DHT22;9206;50.994;4.538;2023-07-13T18:47:34;22.50;99.90
18163;DHT22;9206;50.994;4.538;2023-07-13T18:50:29;22.30;99.90
18163;DHT22;9206;50.994;4.538;2023-07-13T18:53:19;22.20;99.90
18163;DHT22;9206;50.994;4.538;2023-07-13T18:56:08;22.10;99.90
18163;DHT22;9206;50.994;4.538;2023-07-13T18:58:57;21.90;99.90
18163;DHT22;9206;50.994;4.538;2023-07-13T19:01:45;21.80;99.90
18163;DHT22;9206;50.994;4.538;2023-07-13T19:04:33;21.70;99.90
18163;DHT22;9206;50.994;4.538;2023-07-13T19:07:21;21.60;99.90
18163;DHT22;9206;50.994;4.538;2023-07-13T19:10:17;21.50;99.90
18163;DHT22;9206;50.994;4.538;2023-07-13T19:13:07;21.30;99.90
18163;DHT22;9206;50.994;4.538;2023-07-13T19:16:02;21.20;99.90
18163;DHT22;9206;50.994;4.538;2023-07-13T19:18:51;21.10;99.90
18163;DHT22;9206;50.994;4.538;2023-07-13T19:21:39;21.00;99.90
18163;DHT22;9206;50.994;4.538;2023-07-13T19:24:29;21.00;99.90
18163;DHT22;9206;50.994;4.538;2023-07-13T19:27:26;21.00;99.90
18163;DHT22;9206;50.994;4.538;2023-07-13T19:30:14;20.90;99.90
18163;DHT22;9206;50.994;4.538;2023-07-13T19:33:05;20.90;99.90
18163;DHT22;9206;50.994;4.538;2023-07-13T19:36:01;20.80;99.90
18163;DHT22;9206;50.994;4.538;2023-07-13T19:38:51;20.80;99.90
18163;DHT22;9206;50.994;4.538;2023-07-13T19:41:39;20.80;99.90
18163;DHT22;9206;50.994;4.538;2023-07-13T19:44:32;20.80;99.90
18163;DHT22;9206;50.994;4.538;2023-07-13T19:47:21;20.70;99.90
18163;DHT22;9206;50.994;4.538;2023-07-13T19:50:15;20.70;99.90
18163;DHT22;9206;50.994;4.538;2023-07-13T19:53:14;20.70;99.90
18163;DHT22;9206;50.994;4.538;2023-07-13T19:56:04;20.70;99.90
18163;DHT22;9206;50.994;4.538;2023-07-13T19:58:52;20.60;99.90
18163;DHT22;9206;50.994;4.538;2023-07-13T20:01:54;20.60;99.90
18163;DHT22;9206;50.994;4.538;2023-07-13T20:04:45;20.60;99.90
18163;DHT22;9206;50.994;4.538;2023-07-13T20:07:39;20.50;99.90
18163;DHT22;9206;50.994;4.538;2023-07-13T20:10:30;20.50;99.90
18163;DHT22;9206;50.994;4.538;2023-07-13T20:13:22;20.50;99.90
18163;DHT22;9206;50.994;4.538;2023-07-13T20:16:12;20.50;99.90
18163;DHT22;9206;50.994;4.538;2023-07-13T20:19:11;20.40;99.90
18163;DHT22;9206;50.994;4.538;2023-07-13T20:22:01;20.40;99.90
18163;DHT22;9206;50.994;4.538;2023-07-13T20:24:50;20.30;99.90
18163;DHT22;9206;50.994;4.538;2023-07-13T20:27:37;20.30;99.90
18163;DHT22;9206;50.994;4.538;2023-07-13T20:30:41;20.30;99.90
18163;DHT22;9206;50.994;4.538;2023-07-13T20:33:32;20.30;99.90
18163;DHT22;9206;50.994;4.538;2023-07-13T20:36:24;20.20;99.90
18163;DHT22;9206;50.994;4.538;2023-07-13T20:39:12;20.20;99.90
18163;DHT22;9206;50.994;4.538;2023-07-13T20:42:04;20.20;99.90
18163;DHT22;9206;50.994;4.538;2023-07-13T20:44:56;20.20;99.90
18163;DHT22;9206;50.994;4.538;2023-07-13T20:47:45;20.20;99.90
18163;DHT22;9206;50.994;4.538;2023-07-13T20:50:36;20.20;99.90
18163;DHT22;9206;50.994;4.538;2023-07-13T20:53:28;20.10;99.90
18163;DHT22;9206;50.994;4.538;2023-07-13T20:56:24;20.10;99.90
18163;DHT22;9206;50.994;4.538;2023-07-13T20:59:17;20.00;99.90
18163;DHT22;9206;50.994;4.538;2023-07-13T21:02:13;20.00;99.90
18163;DHT22;9206;50.994;4.538;2023-07-13T21:05:23;20.00;99.90
18163;DHT22;9206;50.994;4.538;2023-07-13T21:08:19;19.90;99.90
18163;DHT22;9206;50.994;4.538;2023-07-13T21:11:09;19.80;99.90
18163;DHT22;9206;50.994;4.538;2023-07-13T21:13:57;19.80;99.90
18163;DHT22;9206;50.994;4.538;2023-07-13T21:16:45;19.70;99.90
18163;DHT22;9206;50.994;4.538;2023-07-13T21:19:35;19.70;99.90
18163;DHT22;9206;50.994;4.538;2023-07-13T21:22:22;19.60;99.90
18163;DHT22;9206;50.994;4.538;2023-07-13T21:25:14;19.50;99.90
18163;DHT22;9206;50.994;4.538;2023-07-13T21:28:12;19.30;99.90
18163;DHT22;9206;50.994;4.538;2023-07-13T21:31:02;19.30;99.90
18163;DHT22;9206;50.994;4.538;2023-07-13T21:33:56;19.10;99.90
18163;DHT22;9206;50.994;4.538;2023-07-13T21:36:50;19.00;99.90